This is the latest recevied weather packets stored in our database for station/object KJ6BBX. If no packets are shown the sender has not sent any weather packets the latest 10 day(s).
| Time | Temp. | Humidity | Pressure | Rain* | Wind** | Luminosity | Snow |
|---|---|---|---|---|---|---|---|
| 1777332013 | 20.56° C | 46% | 1007.1 hPa | 0 mm | - | 327 W/m² | - |
| 1777331114 | 20.56° C | 46% | 1007.2 hPa | 0 mm | - | 400 W/m² | - |
| 1777330214 | 22.22° C | 43% | 1007.3 hPa | 0 mm | - | 435 W/m² | - |
| 1777329313 | 21.11° C | 44% | 1007.3 hPa | 0 mm | - | 455 W/m² | - |
| 1777328414 | 21.11° C | 45% | 1007.4 hPa | 0 mm | - | 455 W/m² | - |
| 1777327514 | 19.44° C | 49% | 1007.8 hPa | 0 mm | - | 256 W/m² | - |
| 1777326614 | 20° C | 48% | 1007.7 hPa | 0 mm | - | 169 W/m² | - |
| 1777325714 | 20.56° C | 47% | 1007.8 hPa | 0 mm | - | 215 W/m² | - |
| 1777324814 | 20° C | 49% | 1008 hPa | 0 mm | - | 195 W/m² | - |
| 1777323914 | 21.67° C | 47% | 1008.1 hPa | 0 mm | - | 249 W/m² | - |
| 1777323014 | 20.56° C | 47% | 1008.1 hPa | 0 mm | - | 641 W/m² | - |
| 1777322114 | 20° C | 47% | 1008.1 hPa | 0 mm | - | 686 W/m² | - |
| 1777321215 | 20° C | 47% | 1008.2 hPa | 0 mm | - | 440 W/m² | - |
| 1777320314 | 18.89° C | 51% | 1008.4 hPa | 0 mm | - | 727 W/m² | - |
| 1777319414 | 17.78° C | 52% | 1008.3 hPa | 0 mm | - | 258 W/m² | - |
| 1777318514 | 18.33° C | 50% | 1008.3 hPa | 0 mm | - | 284 W/m² | - |
| 1777317614 | 18.33° C | 49% | 1008.6 hPa | 0 mm | - | 225 W/m² | - |
| 1777316715 | 18.33° C | 46% | 1008.5 hPa | 0 mm | - | 197 W/m² | - |
| 1777315814 | 17.78° C | 49% | 1008.5 hPa | 0 mm | - | 211 W/m² | - |
| 1777314915 | 17.78° C | 48% | 1008.4 hPa | 0 mm | - | 165 W/m² | - |
| 1777314014 | 17.78° C | 51% | 1008.3 hPa | 0 mm | - | 127 W/m² | - |
| 1777313114 | 18.89° C | 44% | 1008.2 hPa | 0 mm | - | 636 W/m² | - |
| 1777312214 | 19.44° C | 44% | 1008.2 hPa | 0 mm | - | 236 W/m² | - |
| 1777311314 | 19.44° C | 45% | 1008.1 hPa | 0 mm | - | 718 W/m² | - |
| 1777310414 | 17.22° C | 50% | 1008.1 hPa | 0 mm | - | 365 W/m² | - |
* Rain since midnight (hover to see other rain measurements)
** Current wind speed in m/s (hover to see current wind gust speed)